LHA2128 EDDH-LICJ
Flight info
| Callsign | LHA2128 |
|---|---|
| Flight time | N/A |
| Altitude | 33000 |
| Route | AMLUH M852 POVEL Z94 GALMA T703 ARBAX T108 OSTES T700 BADIT DCT TIBRO DCT RCH DCT BARPI DCT BAXON DCT IVMEP DCT ALAXI DCT TAGEL DCT LURON |
| Aircraft | A320/M-SDE1E2FGIRWYZ/LB1 |
Departure
| Time | N/A |
|---|---|
| Airport | Hamburg Helmut Schmidt Airport (EDDH) |
Arrival
| Time | 2026-05-06 06:29 |
|---|---|
| Airport | Falcone–Borsellino Airport (LICJ) |
| Time | Latitude | Longitude | Altitude | Speed | Heading |
|---|---|---|---|---|---|
| 2026-05-06 05:41 | 43.59900 | 13.39486 | 33019 ft | 530 kts | 187° |
| 2026-05-06 05:42 | 43.52556 | 13.38882 | 33025 ft | 530 kts | 187° |
| 2026-05-06 05:42 | 43.45188 | 13.38277 | 33028 ft | 531 kts | 187° |
| 2026-05-06 05:43 | 43.37873 | 13.37678 | 33032 ft | 531 kts | 187° |
| 2026-05-06 05:43 | 43.30484 | 13.37074 | 33037 ft | 531 kts | 187° |
| 2026-05-06 05:44 | 43.23116 | 13.36756 | 33040 ft | 534 kts | 184° |
| 2026-05-06 05:44 | 43.15729 | 13.36657 | 33040 ft | 534 kts | 184° |
| 2026-05-06 05:45 | 43.08318 | 13.36557 | 33041 ft | 534 kts | 184° |
| 2026-05-06 05:45 | 43.00924 | 13.36457 | 33044 ft | 534 kts | 184° |
| 2026-05-06 05:46 | 42.93515 | 13.36357 | 33046 ft | 534 kts | 183° |
| 2026-05-06 05:46 | 42.86089 | 13.36258 | 33046 ft | 533 kts | 183° |
| 2026-05-06 05:47 | 42.78727 | 13.36158 | 33041 ft | 533 kts | 183° |
| 2026-05-06 05:47 | 42.71309 | 13.36058 | 33032 ft | 532 kts | 183° |
| 2026-05-06 05:48 | 42.63974 | 13.35960 | 33029 ft | 532 kts | 183° |
| 2026-05-06 05:48 | 42.56573 | 13.35861 | 33027 ft | 532 kts | 183° |
| 2026-05-06 05:49 | 42.49182 | 13.35763 | 33028 ft | 532 kts | 183° |
| 2026-05-06 05:49 | 42.41797 | 13.35665 | 33036 ft | 532 kts | 183° |
| 2026-05-06 05:50 | 42.34451 | 13.35568 | 33045 ft | 532 kts | 183° |
| 2026-05-06 05:50 | 42.27066 | 13.35471 | 33060 ft | 532 kts | 183° |
| 2026-05-06 05:51 | 42.19659 | 13.35373 | 33063 ft | 533 kts | 183° |
| 2026-05-06 05:51 | 42.12255 | 13.35276 | 33064 ft | 533 kts | 183° |
| 2026-05-06 05:52 | 42.04853 | 13.35180 | 33068 ft | 534 kts | 183° |
| 2026-05-06 05:52 | 41.97444 | 13.35083 | 33079 ft | 534 kts | 183° |
| 2026-05-06 05:53 | 41.90030 | 13.34986 | 33080 ft | 534 kts | 183° |
| 2026-05-06 05:53 | 41.82629 | 13.34890 | 33079 ft | 533 kts | 183° |
| 2026-05-06 05:54 | 41.75238 | 13.34794 | 33071 ft | 532 kts | 183° |
| 2026-05-06 05:54 | 41.67859 | 13.34641 | 33063 ft | 531 kts | 184° |
| 2026-05-06 05:55 | 41.60506 | 13.34438 | 33060 ft | 532 kts | 184° |
| 2026-05-06 05:55 | 41.53099 | 13.34243 | 33064 ft | 532 kts | 184° |
| 2026-05-06 05:56 | 41.45731 | 13.34052 | 33069 ft | 532 kts | 184° |
| 2026-05-06 05:56 | 41.38367 | 13.33862 | 33074 ft | 532 kts | 184° |
| 2026-05-06 05:57 | 41.30967 | 13.33672 | 33081 ft | 532 kts | 184° |
| 2026-05-06 05:57 | 41.23572 | 13.33483 | 33082 ft | 533 kts | 184° |
| 2026-05-06 05:58 | 41.16169 | 13.33293 | 33091 ft | 533 kts | 184° |
| 2026-05-06 05:58 | 41.08800 | 13.33105 | 33099 ft | 533 kts | 184° |
| 2026-05-06 05:59 | 41.01368 | 13.32916 | 33089 ft | 534 kts | 183° |
| 2026-05-06 05:59 | 40.93986 | 13.32728 | 33086 ft | 534 kts | 183° |
| 2026-05-06 06:00 | 40.86579 | 13.32541 | 33084 ft | 534 kts | 183° |
| 2026-05-06 06:00 | 40.79175 | 13.32354 | 33077 ft | 534 kts | 182° |
| 2026-05-06 06:01 | 40.71749 | 13.32166 | 33072 ft | 534 kts | 183° |
| 2026-05-06 06:01 | 40.64388 | 13.31981 | 33076 ft | 534 kts | 182° |
| 2026-05-06 06:02 | 40.57006 | 13.31796 | 32869 ft | 529 kts | 183° |
| 2026-05-06 06:02 | 40.53342 | 13.31705 | 32642 ft | 527 kts | 182° |
| 2026-05-06 06:02 | 40.49682 | 13.31613 | 32407 ft | 527 kts | 182° |
| 2026-05-06 06:03 | 40.46032 | 13.31521 | 32176 ft | 527 kts | 183° |
| 2026-05-06 06:03 | 40.42387 | 13.31430 | 31942 ft | 526 kts | 183° |
| 2026-05-06 06:03 | 40.38743 | 13.31339 | 31708 ft | 525 kts | 183° |
| 2026-05-06 06:03 | 40.35114 | 13.31248 | 31474 ft | 525 kts | 182° |
| 2026-05-06 06:04 | 40.31448 | 13.31152 | 31236 ft | 525 kts | 184° |
| 2026-05-06 06:04 | 40.27842 | 13.30850 | 30999 ft | 523 kts | 188° |
| 2026-05-06 06:04 | 40.24215 | 13.30343 | 30757 ft | 523 kts | 189° |
| 2026-05-06 06:04 | 40.20651 | 13.29849 | 30522 ft | 521 kts | 188° |
| 2026-05-06 06:05 | 40.17021 | 13.29349 | 30279 ft | 518 kts | 188° |
| 2026-05-06 06:05 | 40.13457 | 13.28859 | 30041 ft | 515 kts | 188° |
| 2026-05-06 06:05 | 40.09929 | 13.28373 | 29803 ft | 512 kts | 188° |
| 2026-05-06 06:05 | 40.06426 | 13.27891 | 29563 ft | 510 kts | 188° |
| 2026-05-06 06:06 | 40.02869 | 13.27402 | 29318 ft | 508 kts | 188° |
| 2026-05-06 06:06 | 39.99388 | 13.26924 | 29079 ft | 507 kts | 188° |
| 2026-05-06 06:06 | 39.95880 | 13.26442 | 28841 ft | 504 kts | 188° |
| 2026-05-06 06:06 | 39.92455 | 13.25972 | 28605 ft | 501 kts | 188° |
| 2026-05-06 06:07 | 39.88980 | 13.25497 | 28358 ft | 498 kts | 188° |
| 2026-05-06 06:07 | 39.85577 | 13.25031 | 28113 ft | 496 kts | 188° |
| 2026-05-06 06:07 | 39.82150 | 13.24562 | 27872 ft | 494 kts | 188° |
| 2026-05-06 06:07 | 39.78737 | 13.24096 | 27627 ft | 492 kts | 188° |
| 2026-05-06 06:08 | 39.75375 | 13.23637 | 27387 ft | 490 kts | 188° |
| 2026-05-06 06:08 | 39.71988 | 13.23175 | 27141 ft | 488 kts | 188° |
| 2026-05-06 06:08 | 39.68650 | 13.22721 | 26896 ft | 486 kts | 188° |
| 2026-05-06 06:08 | 39.65280 | 13.22262 | 26649 ft | 484 kts | 188° |
| 2026-05-06 06:09 | 39.61941 | 13.21809 | 26406 ft | 482 kts | 188° |
| 2026-05-06 06:09 | 39.58644 | 13.21361 | 26164 ft | 480 kts | 188° |
| 2026-05-06 06:09 | 39.55331 | 13.20912 | 25921 ft | 477 kts | 188° |
| 2026-05-06 06:09 | 39.52070 | 13.20469 | 25680 ft | 475 kts | 188° |
| 2026-05-06 06:10 | 39.48798 | 13.20026 | 25439 ft | 473 kts | 188° |
| 2026-05-06 06:10 | 39.45546 | 13.19585 | 25198 ft | 470 kts | 188° |
| 2026-05-06 06:10 | 39.42313 | 13.19148 | 24957 ft | 468 kts | 188° |
| 2026-05-06 06:10 | 39.39091 | 13.18713 | 24714 ft | 466 kts | 188° |
| 2026-05-06 06:11 | 39.35907 | 13.18283 | 24474 ft | 463 kts | 188° |
| 2026-05-06 06:11 | 39.32703 | 13.17851 | 24232 ft | 461 kts | 188° |
| 2026-05-06 06:11 | 39.29519 | 13.17423 | 23990 ft | 458 kts | 188° |
| 2026-05-06 06:11 | 39.26373 | 13.17000 | 23748 ft | 456 kts | 188° |
| 2026-05-06 06:12 | 39.23237 | 13.16578 | 23507 ft | 453 kts | 188° |
| 2026-05-06 06:12 | 39.20119 | 13.16159 | 23266 ft | 451 kts | 188° |
| 2026-05-06 06:12 | 39.17057 | 13.15749 | 23027 ft | 448 kts | 188° |
| 2026-05-06 06:12 | 39.13970 | 13.15335 | 22786 ft | 446 kts | 188° |
| 2026-05-06 06:13 | 39.10905 | 13.14924 | 22546 ft | 443 kts | 188° |
| 2026-05-06 06:13 | 39.07858 | 13.14517 | 22304 ft | 441 kts | 188° |
| 2026-05-06 06:13 | 39.04814 | 13.14110 | 21989 ft | 437 kts | 188° |
| 2026-05-06 06:13 | 39.01807 | 13.13709 | 21486 ft | 434 kts | 188° |
| 2026-05-06 06:14 | 38.98839 | 13.13312 | 20935 ft | 433 kts | 188° |
| 2026-05-06 06:14 | 38.95850 | 13.12913 | 20374 ft | 432 kts | 188° |
| 2026-05-06 06:14 | 38.92878 | 13.12517 | 19811 ft | 430 kts | 188° |
| 2026-05-06 06:14 | 38.89934 | 13.12125 | 19252 ft | 429 kts | 188° |
| 2026-05-06 06:15 | 38.86957 | 13.11741 | 18681 ft | 428 kts | 186° |
| 2026-05-06 06:15 | 38.84024 | 13.11720 | 18123 ft | 428 kts | 178° |
| 2026-05-06 06:15 | 38.81054 | 13.11956 | 17551 ft | 426 kts | 178° |
| 2026-05-06 06:15 | 38.78128 | 13.12178 | 16988 ft | 424 kts | 178° |
| 2026-05-06 06:16 | 38.75190 | 13.12399 | 16421 ft | 422 kts | 178° |
| 2026-05-06 06:16 | 38.72263 | 13.12619 | 15859 ft | 419 kts | 178° |
| 2026-05-06 06:16 | 38.69390 | 13.12836 | 15405 ft | 414 kts | 178° |
| 2026-05-06 06:16 | 38.66569 | 13.13049 | 14916 ft | 410 kts | 178° |
| 2026-05-06 06:17 | 38.63723 | 13.13263 | 14412 ft | 406 kts | 178° |
| 2026-05-06 06:17 | 38.60945 | 13.13468 | 13908 ft | 402 kts | 179° |
| 2026-05-06 06:17 | 38.58165 | 13.13362 | 13406 ft | 396 kts | 188° |
| 2026-05-06 06:17 | 38.55456 | 13.12993 | 12910 ft | 392 kts | 188° |
| 2026-05-06 06:18 | 38.52750 | 13.12637 | 12411 ft | 389 kts | 188° |
| 2026-05-06 06:18 | 38.50097 | 13.12289 | 11916 ft | 385 kts | 188° |
| 2026-05-06 06:18 | 38.47430 | 13.11940 | 11409 ft | 382 kts | 188° |
| 2026-05-06 06:18 | 38.44812 | 13.11597 | 10915 ft | 379 kts | 187° |
| 2026-05-06 06:19 | 38.42253 | 13.11263 | 10662 ft | 368 kts | 187° |
| 2026-05-06 06:19 | 38.39730 | 13.10934 | 10474 ft | 356 kts | 187° |
| 2026-05-06 06:19 | 38.37308 | 13.10618 | 10304 ft | 345 kts | 187° |
| 2026-05-06 06:19 | 38.34972 | 13.10313 | 10145 ft | 334 kts | 188° |
| 2026-05-06 06:20 | 38.32709 | 13.10018 | 9993 ft | 324 kts | 188° |
| 2026-05-06 06:20 | 38.30503 | 13.09731 | 9820 ft | 315 kts | 188° |
| 2026-05-06 06:20 | 38.28354 | 13.09450 | 9528 ft | 311 kts | 187° |
| 2026-05-06 06:20 | 38.26203 | 13.09169 | 9184 ft | 309 kts | 187° |
| 2026-05-06 06:21 | 38.24038 | 13.08886 | 8831 ft | 307 kts | 187° |
| 2026-05-06 06:21 | 38.21947 | 13.08613 | 8490 ft | 305 kts | 187° |
| 2026-05-06 06:21 | 38.19828 | 13.08336 | 8147 ft | 303 kts | 187° |
| 2026-05-06 06:21 | 38.17742 | 13.08069 | 7807 ft | 302 kts | 187° |
| 2026-05-06 06:22 | 38.15680 | 13.07807 | 7467 ft | 300 kts | 187° |
| 2026-05-06 06:22 | 38.13599 | 13.07539 | 7123 ft | 298 kts | 187° |
| 2026-05-06 06:22 | 38.11556 | 13.07317 | 6783 ft | 297 kts | 179° |
| 2026-05-06 06:22 | 38.09569 | 13.07893 | 6437 ft | 296 kts | 152° |
| 2026-05-06 06:23 | 38.07973 | 13.09513 | 6097 ft | 291 kts | 125° |
| 2026-05-06 06:23 | 38.07135 | 13.11768 | 5762 ft | 284 kts | 98° |
| 2026-05-06 06:23 | 38.07181 | 13.14227 | 5418 ft | 276 kts | 71° |
| 2026-05-06 06:23 | 38.08078 | 13.16303 | 5078 ft | 270 kts | 44° |
| 2026-05-06 06:24 | 38.09567 | 13.17701 | 4746 ft | 266 kts | 30° |
| 2026-05-06 06:24 | 38.11137 | 13.18948 | 4402 ft | 266 kts | 31° |
| 2026-05-06 06:24 | 38.12695 | 13.20192 | 4057 ft | 265 kts | 31° |
| 2026-05-06 06:24 | 38.14249 | 13.21433 | 3716 ft | 265 kts | 31° |
| 2026-05-06 06:25 | 38.15787 | 13.22665 | 3544 ft | 258 kts | 31° |
| 2026-05-06 06:25 | 38.17258 | 13.23844 | 3522 ft | 245 kts | 31° |
| 2026-05-06 06:25 | 38.19994 | 13.26038 | 3517 ft | 224 kts | 31° |
| 2026-05-06 06:26 | 38.21303 | 13.27063 | 3519 ft | 215 kts | 24° |
| 2026-05-06 06:26 | 38.22701 | 13.27313 | 3525 ft | 203 kts | 342° |
| 2026-05-06 06:26 | 38.23807 | 13.26255 | 3525 ft | 203 kts | 297° |
| 2026-05-06 06:26 | 38.24009 | 13.24499 | 3407 ft | 209 kts | 256° |
| 2026-05-06 06:27 | 38.23227 | 13.23010 | 3043 ft | 206 kts | 218° |
| 2026-05-06 06:27 | 38.22134 | 13.21884 | 2652 ft | 197 kts | 236° |
| 2026-05-06 06:27 | 38.21558 | 13.20397 | 2388 ft | 185 kts | 248° |
| 2026-05-06 06:27 | 38.20947 | 13.18955 | 2051 ft | 181 kts | 236° |
| 2026-05-06 06:28 | 38.20289 | 13.17547 | 1428 ft | 191 kts | 249° |
| 2026-05-06 06:28 | 38.19824 | 13.15955 | 869 ft | 192 kts | 251° |
| 2026-05-06 06:28 | 38.19427 | 13.14438 | 642 ft | 170 kts | 248° |
| 2026-05-06 06:28 | 38.18980 | 13.13157 | 443 ft | 152 kts | 245° |
| 2026-05-06 06:29 | 38.18543 | 13.11956 | 112 ft | 145 kts | 245° |
| 2026-05-06 06:29 | 38.18174 | 13.10890 | 78 ft | 115 kts | 246° |
| 2026-05-06 06:29 | 38.18003 | 13.10330 | 71 ft | 20 kts | 271° |
| 2026-05-06 06:29 | 38.18018 | 13.10152 | 64 ft | 13 kts | 278° |
| 2026-05-06 06:30 | 38.18032 | 13.10017 | 61 ft | 16 kts | 277° |
| 2026-05-06 06:30 | 38.18049 | 13.09963 | 59 ft | 7 kts | 341° |
| 2026-05-06 06:30 | 38.18107 | 13.10020 | 58 ft | 16 kts | 65° |
| 2026-05-06 06:30 | 38.18155 | 13.10164 | 62 ft | 17 kts | 67° |
| 2026-05-06 06:31 | 38.18199 | 13.10298 | 63 ft | 14 kts | 67° |
| 2026-05-06 06:31 | 38.18271 | 13.10370 | 62 ft | 14 kts | 24° |
| 2026-05-06 06:31 | 38.18328 | 13.10458 | 64 ft | 8 kts | 51° |
| 2026-05-06 06:31 | 38.18379 | 13.10497 | 63 ft | 9 kts | 22° |
| 2026-05-06 06:32 | 38.18436 | 13.10535 | 62 ft | 6 kts | 42° |
| 2026-05-06 06:32 | 38.18466 | 13.10577 | 61 ft | 6 kts | 20° |
| 2026-05-06 06:32 | 38.18506 | 13.10570 | 60 ft | 6 kts | 338° |
| 2026-05-06 06:32 | 38.18518 | 13.10563 | 59 ft | 2 kts | 337° |
| 2026-05-06 06:33 | 38.18535 | 13.10554 | 59 ft | 0 kts | 336° |
| 2026-05-06 06:36 | 38.18534 | 13.10554 | 59 ft | 0 kts | 336° |